Time;durP1;ratioP1;P1;durP2;ratioP2;P2;SDS_P1;SDS_P2;PMS_P1;PMS_P2;Temp;Humidity;BMP_temperature;BMP_pressure;BME280_temperature;BME280_humidity;BME280_pressure;Samples;Min_cycle;Max_cycle;Signal;HPM_P1;HPM_P2
2021/09/11 00:02:08;;;;;;;7.67;6.47;;;18.40;99.90;;;;;;4982036;28;20175;-93
2021/09/11 00:04:36;;;;;;;10.10;6.83;;;18.50;99.90;;;;;;4981576;28;20194;-90
2021/09/11 00:07:02;;;;;;;10.50;6.50;;;18.40;99.90;;;;;;4980676;28;20203;-91
2021/09/11 00:09:30;;;;;;;9.80;7.00;;;18.40;99.90;;;;;;4980830;28;20191;-91
2021/09/11 00:11:56;;;;;;;10.13;7.17;;;18.40;99.90;;;;;;4980503;28;20187;-91
2021/09/11 00:14:21;;;;;;;9.27;7.00;;;18.40;99.90;;;;;;4980735;28;20174;-92
2021/09/11 00:16:48;;;;;;;9.63;7.20;;;18.50;99.90;;;;;;4981570;28;20193;-91
2021/09/11 00:19:14;;;;;;;8.83;7.90;;;18.50;99.90;;;;;;4980292;28;20171;-90
2021/09/11 00:21:39;;;;;;;9.97;8.03;;;18.40;99.90;;;;;;4980543;28;20209;-91
2021/09/11 00:24:06;;;;;;;10.17;8.30;;;18.30;99.90;;;;;;4980779;28;20658;-91
2021/09/11 00:26:32;;;;;;;10.60;7.43;;;18.40;99.90;;;;;;4981135;28;20242;-90
2021/09/11 00:28:57;;;;;;;12.17;8.00;;;18.40;99.90;;;;;;4979647;28;20190;-91
2021/09/11 00:31:23;;;;;;;10.80;7.87;;;18.40;99.90;;;;;;4980420;28;20628;-91
2021/09/11 00:33:48;;;;;;;10.83;7.77;;;18.40;99.90;;;;;;4979949;28;20182;-91
2021/09/11 00:36:14;;;;;;;9.33;7.40;;;18.50;99.90;;;;;;4996976;28;20203;-90
2021/09/11 00:38:40;;;;;;;10.67;7.20;;;18.40;99.90;;;;;;4980049;28;20171;-90
2021/09/11 00:41:06;;;;;;;9.10;7.20;;;18.30;99.90;;;;;;4980059;28;20654;-91
2021/09/11 00:43:34;;;;;;;7.90;6.43;;;18.30;99.90;;;;;;4979382;28;20199;-91
2021/09/11 00:46:01;;;;;;;9.37;7.27;;;18.30;99.90;;;;;;4980172;28;20177;-90
2021/09/11 00:48:27;;;;;;;10.83;7.37;;;18.30;99.90;;;;;;4979753;28;20210;-91
2021/09/11 00:50:52;;;;;;;10.10;7.33;;;18.30;99.90;;;;;;4982311;28;20175;-90
2021/09/11 00:53:19;;;;;;;8.80;6.63;;;18.50;99.90;;;;;;4981737;28;20233;-90
2021/09/11 00:55:46;;;;;;;8.40;6.47;;;18.30;99.90;;;;;;4979698;28;20182;-91
2021/09/11 00:58:12;;;;;;;10.20;7.37;;;18.30;99.90;;;;;;4979871;28;20627;-90
2021/09/11 01:00:38;;;;;;;11.40;6.93;;;18.30;99.90;;;;;;4979947;28;20177;-90
2021/09/11 01:03:03;;;;;;;9.57;7.17;;;18.30;99.90;;;;;;4979445;28;20206;-90
2021/09/11 01:05:29;;;;;;;10.63;7.07;;;18.30;99.90;;;;;;4979711;28;20175;-89
2021/09/11 01:07:55;;;;;;;11.17;6.57;;;18.20;99.90;;;;;;4980178;28;20258;-90
2021/09/11 01:10:21;;;;;;;9.53;6.80;;;18.20;99.90;;;;;;4980196;28;20179;-90
2021/09/11 01:12:47;;;;;;;8.23;6.77;;;18.20;99.90;;;;;;5008587;28;20191;-90
2021/09/11 01:15:16;;;;;;;7.60;6.80;;;18.10;99.90;;;;;;5018979;28;20198;-89
2021/09/11 01:17:45;;;;;;;10.17;7.30;;;18.10;99.90;;;;;;5002047;28;20178;-89
2021/09/11 01:20:16;;;;;;;9.40;6.60;;;18.00;99.90;;;;;;5009455;28;20171;-89
2021/09/11 01:22:45;;;;;;;10.23;7.03;;;18.10;99.90;;;;;;4996950;28;20627;-91
2021/09/11 01:25:11;;;;;;;10.90;6.70;;;18.00;99.90;;;;;;4980390;28;20577;-91
2021/09/11 01:27:37;;;;;;;11.20;6.87;;;17.90;99.90;;;;;;4980904;28;20238;-91
2021/09/11 01:30:11;;;;;;;9.23;6.37;;;17.90;99.90;;;;;;4998087;28;20182;-89
2021/09/11 01:32:36;;;;;;;7.47;6.37;;;17.80;99.90;;;;;;5003852;28;20193;-88
2021/09/11 01:35:03;;;;;;;11.17;6.97;;;17.90;99.90;;;;;;5018628;28;20168;-87
2021/09/11 01:37:29;;;;;;;6.90;5.93;;;17.80;99.90;;;;;;5018814;28;20215;-87
2021/09/11 01:39:56;;;;;;;8.10;5.53;;;17.80;99.90;;;;;;5001757;28;20188;-91
2021/09/11 01:42:26;;;;;;;9.93;5.93;;;17.80;99.90;;;;;;4982327;28;20609;-91
2021/09/11 01:45:09;;;;;;;8.23;5.53;;;17.70;99.90;;;;;;4979505;28;20694;-90
2021/09/11 01:47:36;;;;;;;9.10;5.50;;;17.70;99.90;;;;;;4982847;28;20643;-90
2021/09/11 01:50:04;;;;;;;9.10;5.93;;;17.80;99.90;;;;;;4982866;28;20552;-91
2021/09/11 01:52:30;;;;;;;11.97;6.30;;;17.80;99.90;;;;;;4983662;28;20183;-91
2021/09/11 01:54:55;;;;;;;7.63;5.77;;;17.80;99.90;;;;;;4982864;28;20372;-90
2021/09/11 01:57:21;;;;;;;9.40;5.90;;;17.80;99.90;;;;;;4983318;28;20171;-91
2021/09/11 01:59:47;;;;;;;7.37;5.13;;;17.80;99.90;;;;;;4984031;28;20282;-91
2021/09/11 02:02:12;;;;;;;7.17;5.30;;;17.80;99.90;;;;;;4983336;28;20627;-90
2021/09/11 02:04:38;;;;;;;9.13;5.60;;;17.80;99.90;;;;;;4983372;28;20201;-91
2021/09/11 02:07:05;;;;;;;10.90;5.60;;;17.80;99.90;;;;;;4984132;28;20226;-91
2021/09/11 02:09:32;;;;;;;8.33;5.47;;;17.80;99.90;;;;;;5000696;28;20303;-91
2021/09/11 02:11:58;;;;;;;9.83;6.50;;;17.70;99.90;;;;;;4984849;28;20176;-91
2021/09/11 02:14:25;;;;;;;10.80;5.57;;;17.80;99.90;;;;;;4988397;28;20179;-90
2021/09/11 02:16:51;;;;;;;8.73;5.60;;;17.80;99.90;;;;;;4996520;28;20180;-87
2021/09/11 02:19:17;;;;;;;7.30;5.13;;;17.80;99.90;;;;;;5000736;28;20171;-88
2021/09/11 02:21:44;;;;;;;7.57;5.23;;;17.80;99.90;;;;;;4999803;28;20700;-90
2021/09/11 02:24:10;;;;;;;8.00;5.60;;;17.90;99.90;;;;;;5010517;28;20314;-90
2021/09/11 02:26:36;;;;;;;8.50;5.57;;;18.00;99.90;;;;;;4990484;28;20222;-91
2021/09/11 02:29:05;;;;;;;10.70;5.97;;;18.10;99.90;;;;;;4985672;28;20188;-90
2021/09/11 02:31:32;;;;;;;8.17;5.70;;;18.10;99.90;;;;;;4984540;28;20166;-90
2021/09/11 02:33:58;;;;;;;9.30;6.07;;;17.90;99.90;;;;;;4984452;28;20187;-91
2021/09/11 02:36:24;;;;;;;8.03;5.50;;;17.90;99.90;;;;;;4984350;28;20212;-91
2021/09/11 02:38:56;;;;;;;8.47;5.60;;;18.00;99.90;;;;;;4985066;28;20175;-91
2021/09/11 02:41:21;;;;;;;8.00;5.70;;;18.00;99.90;;;;;;5001935;28;20171;-90
2021/09/11 02:43:47;;;;;;;6.57;5.50;;;17.90;99.90;;;;;;4983370;28;20215;-92
2021/09/11 02:46:13;;;;;;;8.53;6.10;;;18.00;99.90;;;;;;4983953;28;20315;-91
2021/09/11 02:48:39;;;;;;;8.60;5.53;;;18.00;99.90;;;;;;4983488;28;20179;-91
2021/09/11 02:51:05;;;;;;;8.53;5.67;;;17.90;99.90;;;;;;4983223;28;20180;-92
2021/09/11 02:53:31;;;;;;;9.07;5.80;;;17.90;99.90;;;;;;4983506;28;20282;-92
2021/09/11 02:55:56;;;;;;;10.00;5.30;;;17.90;99.90;;;;;;4986637;28;20175;-92
2021/09/11 02:58:25;;;;;;;8.73;5.57;;;17.90;99.90;;;;;;4991899;28;20190;-91
2021/09/11 03:00:51;;;;;;;10.80;5.37;;;17.80;99.90;;;;;;4989649;28;20175;-91
2021/09/11 03:03:21;;;;;;;9.47;5.20;;;17.80;99.90;;;;;;4984009;28;20201;-91
2021/09/11 03:05:46;;;;;;;7.93;5.00;;;17.90;99.90;;;;;;4986232;28;20175;-91
2021/09/11 03:08:12;;;;;;;11.03;4.93;;;17.90;99.90;;;;;;4985715;28;20221;-90
2021/09/11 03:10:38;;;;;;;10.40;4.77;;;17.80;99.90;;;;;;4985524;28;20210;-90
2021/09/11 03:13:05;;;;;;;7.13;5.23;;;17.90;99.90;;;;;;4987795;28;20194;-91
2021/09/11 03:15:30;;;;;;;8.57;5.17;;;17.90;99.90;;;;;;4991545;28;20211;-91
2021/09/11 03:17:56;;;;;;;7.43;4.93;;;17.90;99.90;;;;;;4997488;28;20169;-90
2021/09/11 03:20:22;;;;;;;7.23;4.73;;;17.90;99.90;;;;;;4992155;28;20183;-92
2021/09/11 03:22:47;;;;;;;8.40;4.83;;;18.00;99.90;;;;;;4992736;28;20234;-91
2021/09/11 03:25:13;;;;;;;10.17;5.47;;;18.10;99.90;;;;;;4995044;28;20175;-90
2021/09/11 03:27:39;;;;;;;9.30;5.00;;;18.00;99.90;;;;;;4989839;28;20197;-89
2021/09/11 03:30:09;;;;;;;7.53;4.60;;;18.20;99.90;;;;;;4984651;28;20202;-89
2021/09/11 03:32:35;;;;;;;8.60;4.47;;;18.10;99.90;;;;;;4999888;28;20183;-90
2021/09/11 03:35:02;;;;;;;7.53;4.43;;;18.10;99.90;;;;;;5003832;28;20163;-89
2021/09/11 03:37:29;;;;;;;8.80;4.50;;;18.10;99.90;;;;;;5003781;28;20186;-89
2021/09/11 03:39:55;;;;;;;12.43;5.03;;;18.20;99.90;;;;;;5003909;28;20270;-88
2021/09/11 03:42:23;;;;;;;8.63;4.20;;;18.30;99.90;;;;;;5003051;28;20186;-90
2021/09/11 03:44:48;;;;;;;8.97;3.93;;;18.30;99.90;;;;;;5002340;28;20199;-92
2021/09/11 03:47:14;;;;;;;6.83;3.80;;;18.10;99.90;;;;;;5001509;28;20168;-90
2021/09/11 03:49:39;;;;;;;6.80;4.20;;;18.10;99.90;;;;;;5001454;28;20174;-91
2021/09/11 03:52:07;;;;;;;9.83;4.20;;;18.00;99.90;;;;;;4985627;28;20624;-91
2021/09/11 03:54:33;;;;;;;6.40;3.87;;;18.00;99.90;;;;;;5007049;28;20179;-91
2021/09/11 03:56:58;;;;;;;9.03;3.80;;;18.20;99.90;;;;;;4981912;28;20234;-91
2021/09/11 03:59:27;;;;;;;6.77;3.67;;;18.00;99.90;;;;;;4982117;28;20175;-91
2021/09/11 04:01:53;;;;;;;7.00;3.63;;;18.10;99.90;;;;;;4983655;28;20178;-92
2021/09/11 04:04:18;;;;;;;6.30;3.33;;;18.20;99.90;;;;;;4981809;28;20690;-90
2021/09/11 04:06:44;;;;;;;6.87;3.80;;;18.20;99.90;;;;;;4987591;28;20175;-88
2021/09/11 04:09:09;;;;;;;9.90;4.20;;;18.30;99.90;;;;;;5002362;28;20175;-92
2021/09/11 04:11:35;;;;;;;9.03;3.80;;;18.20;99.90;;;;;;5001514;28;20159;-91
2021/09/11 04:14:01;;;;;;;6.50;3.77;;;18.20;99.90;;;;;;4997309;28;20179;-92
2021/09/11 04:16:29;;;;;;;10.33;4.13;;;18.20;99.90;;;;;;4981818;28;20285;-90
2021/09/11 04:18:59;;;;;;;9.17;3.83;;;18.40;99.90;;;;;;4982011;28;20242;-90
2021/09/11 04:21:25;;;;;;;8.13;3.87;;;18.40;99.90;;;;;;4981233;28;20571;-93
2021/09/11 04:23:51;;;;;;;9.60;3.90;;;18.40;99.90;;;;;;4984682;28;20243;-92
2021/09/11 04:26:16;;;;;;;8.33;3.80;;;18.20;99.90;;;;;;4990596;28;20167;-92
2021/09/11 04:28:42;;;;;;;10.67;4.57;;;18.20;99.90;;;;;;5001399;28;20227;-88
2021/09/11 04:31:08;;;;;;;9.87;3.90;;;18.20;99.90;;;;;;5019055;28;20177;-87
2021/09/11 04:33:36;;;;;;;11.13;4.47;;;18.20;99.90;;;;;;4999812;28;20175;-91
2021/09/11 04:36:01;;;;;;;11.37;4.67;;;18.20;99.90;;;;;;5006460;28;20718;-91
2021/09/11 04:38:30;;;;;;;9.40;4.77;;;18.20;99.90;;;;;;4998881;28;20219;-90
2021/09/11 04:40:56;;;;;;;10.43;4.60;;;18.00;99.90;;;;;;4980700;28;20181;-90
2021/09/11 04:43:21;;;;;;;8.43;4.43;;;18.10;99.90;;;;;;4980822;28;20254;-89
2021/09/11 04:45:48;;;;;;;8.77;4.40;;;18.10;99.90;;;;;;4981056;28;20175;-91
2021/09/11 04:48:13;;;;;;;10.13;4.90;;;18.00;99.90;;;;;;4981668;28;20225;-91
2021/09/11 04:50:39;;;;;;;12.63;5.40;;;18.10;99.90;;;;;;4980378;28;20585;-91
2021/09/11 04:53:05;;;;;;;10.97;5.10;;;18.00;99.90;;;;;;4979623;28;20202;-89
2021/09/11 04:55:30;;;;;;;8.30;4.70;;;18.00;99.90;;;;;;4997082;28;20217;-91
2021/09/11 04:57:56;;;;;;;9.43;5.30;;;18.10;99.90;;;;;;4979483;28;20175;-92
2021/09/11 05:00:22;;;;;;;9.13;5.13;;;18.20;99.90;;;;;;4997478;28;20171;-91
2021/09/11 05:02:47;;;;;;;7.30;5.27;;;18.10;99.90;;;;;;4980910;28;20218;-88
2021/09/11 05:05:14;;;;;;;13.03;5.80;;;18.30;99.90;;;;;;4982125;28;20171;-91
2021/09/11 05:07:40;;;;;;;9.47;5.23;;;18.10;99.90;;;;;;4981128;28;20199;-91
2021/09/11 05:10:06;;;;;;;9.83;5.30;;;18.00;99.90;;;;;;4980363;28;20237;-92
2021/09/11 05:12:32;;;;;;;9.40;5.40;;;17.90;99.90;;;;;;4980154;28;20174;-90
2021/09/11 05:14:57;;;;;;;9.17;5.73;;;18.00;99.90;;;;;;4996473;28;20187;-91
2021/09/11 05:17:23;;;;;;;8.53;5.53;;;18.00;99.90;;;;;;4996430;28;20175;-91
2021/09/11 05:19:50;;;;;;;10.40;5.57;;;17.90;99.90;;;;;;4978194;28;20179;-90
2021/09/11 05:22:16;;;;;;;9.80;6.17;;;17.90;99.90;;;;;;4995405;28;20179;-90
2021/09/11 05:24:42;;;;;;;10.37;5.57;;;17.90;99.90;;;;;;4977942;28;20202;-90
2021/09/11 05:27:08;;;;;;;10.50;5.63;;;18.00;99.90;;;;;;4978988;28;20214;-91
2021/09/11 05:29:33;;;;;;;9.13;5.77;;;17.90;99.90;;;;;;4979541;28;20185;-91
2021/09/11 05:31:59;;;;;;;8.83;5.53;;;18.00;99.90;;;;;;4979562;28;20175;-92
2021/09/11 05:34:25;;;;;;;11.87;6.17;;;17.90;99.90;;;;;;4995561;28;20318;-93
2021/09/11 05:36:51;;;;;;;9.00;6.10;;;18.00;99.90;;;;;;4979541;28;20166;-91
2021/09/11 05:39:17;;;;;;;8.20;5.43;;;18.00;99.90;;;;;;4979766;28;20263;-92
2021/09/11 05:41:43;;;;;;;11.53;6.37;;;17.80;99.90;;;;;;4979967;28;20171;-92
2021/09/11 05:44:09;;;;;;;9.83;6.07;;;17.80;99.90;;;;;;4987127;28;20210;-92
2021/09/11 05:46:36;;;;;;;9.00;5.77;;;17.90;99.90;;;;;;4998701;28;20186;-91
2021/09/11 05:49:01;;;;;;;9.50;6.40;;;17.80;99.90;;;;;;4980562;28;20704;-91
2021/09/11 05:51:27;;;;;;;9.63;5.87;;;17.90;99.90;;;;;;4979732;28;20193;-90
2021/09/11 05:53:53;;;;;;;9.37;6.07;;;17.80;99.90;;;;;;4981232;28;20183;-90
2021/09/11 05:56:18;;;;;;;9.63;5.80;;;17.70;99.90;;;;;;4982534;28;20178;-91
2021/09/11 05:58:44;;;;;;;9.47;5.67;;;17.70;99.90;;;;;;4981193;28;20616;-92
2021/09/11 06:01:10;;;;;;;10.50;5.93;;;17.80;99.90;;;;;;4999576;28;20215;-92
2021/09/11 06:03:36;;;;;;;7.33;5.87;;;17.70;99.90;;;;;;4980193;28;20302;-92
2021/09/11 06:06:02;;;;;;;11.07;6.07;;;17.70;99.90;;;;;;4982994;28;20178;-92
2021/09/11 06:08:27;;;;;;;8.57;6.13;;;17.80;99.90;;;;;;4980591;28;20179;-91
2021/09/11 06:10:53;;;;;;;7.90;5.80;;;17.80;99.90;;;;;;4980589;28;20268;-93
2021/09/11 06:13:19;;;;;;;7.97;5.90;;;17.90;99.90;;;;;;4980497;28;20206;-91
2021/09/11 06:15:44;;;;;;;9.57;5.47;;;18.00;99.90;;;;;;4999094;28;20186;-91
2021/09/11 06:18:14;;;;;;;8.07;5.60;;;18.00;99.90;;;;;;4981565;28;20179;-92
2021/09/11 06:20:40;;;;;;;7.63;5.80;;;17.90;99.90;;;;;;4983364;28;20672;-91
2021/09/11 06:23:06;;;;;;;9.97;6.10;;;18.00;99.90;;;;;;4989478;28;20199;-91
2021/09/11 06:25:35;;;;;;;8.30;5.90;;;17.90;99.90;;;;;;4999241;28;20213;-92
2021/09/11 06:28:01;;;;;;;10.53;6.10;;;17.90;99.90;;;;;;4997904;28;20158;-90
2021/09/11 06:30:26;;;;;;;9.77;5.77;;;17.90;99.90;;;;;;4998125;28;20180;-90
2021/09/11 06:32:53;;;;;;;8.07;5.40;;;18.00;99.90;;;;;;4998554;28;20171;-91
2021/09/11 06:35:19;;;;;;;7.50;5.13;;;17.90;99.90;;;;;;5013870;28;20186;-89
2021/09/11 06:37:45;;;;;;;8.83;5.67;;;17.80;99.90;;;;;;4987026;28;20206;-91
2021/09/11 06:40:16;;;;;;;9.37;5.73;;;17.90;99.90;;;;;;4987604;28;20179;-93
2021/09/11 06:42:42;;;;;;;8.73;5.93;;;18.00;99.90;;;;;;5012423;28;20206;-91
2021/09/11 06:45:08;;;;;;;10.27;6.10;;;18.10;99.90;;;;;;4996848;28;20191;-92
2021/09/11 06:47:33;;;;;;;8.20;5.30;;;18.20;99.90;;;;;;4997807;28;20620;-92
2021/09/11 06:49:59;;;;;;;9.50;5.77;;;18.30;99.90;;;;;;5000246;28;20166;-91
2021/09/11 06:52:26;;;;;;;11.97;5.43;;;18.20;99.90;;;;;;4995501;28;20243;-92
2021/09/11 06:54:53;;;;;;;8.43;4.77;;;18.10;99.90;;;;;;4994612;28;20174;-91
2021/09/11 06:57:20;;;;;;;8.77;5.33;;;18.20;99.90;;;;;;4996723;28;20169;-91
2021/09/11 06:59:46;;;;;;;10.70;5.37;;;18.20;99.90;;;;;;5001233;28;20164;-90
2021/09/11 07:02:12;;;;;;;8.40;5.53;;;18.40;99.90;;;;;;5010288;28;20163;-90
2021/09/11 07:04:38;;;;;;;8.13;5.43;;;18.40;99.90;;;;;;5020701;28;20210;-88
2021/09/11 07:07:03;;;;;;;8.43;4.60;;;18.40;99.90;;;;;;5022640;28;20190;-89
2021/09/11 07:09:32;;;;;;;8.77;5.10;;;18.40;99.30;;;;;;5003730;28;20269;-89
2021/09/11 07:12:49;;;;;;;7.87;5.10;;;18.40;99.80;;;;;;5000022;28;20187;-86
2021/09/11 07:15:15;;;;;;;9.70;5.70;;;18.40;99.60;;;;;;5001437;28;20236;-86
2021/09/11 07:17:41;;;;;;;8.40;4.73;;;18.60;99.60;;;;;;4999953;28;20174;-85
2021/09/11 07:20:08;;;;;;;11.90;4.87;;;18.50;98.90;;;;;;4993362;28;20181;-86
2021/09/11 07:22:35;;;;;;;6.40;4.80;;;18.70;97.70;;;;;;5004819;28;20231;-87
2021/09/11 07:25:01;;;;;;;8.23;5.60;;;18.60;98.60;;;;;;5010525;28;20208;-84
2021/09/11 07:27:29;;;;;;;9.03;5.67;;;18.40;99.70;;;;;;5015479;28;20623;-86
2021/09/11 07:29:58;;;;;;;8.07;4.93;;;18.50;99.60;;;;;;5001822;28;20175;-85
2021/09/11 07:32:27;;;;;;;8.27;5.10;;;18.50;99.90;;;;;;5008710;28;20170;-89
2021/09/11 07:34:54;;;;;;;8.77;5.17;;;18.50;99.50;;;;;;5014128;28;20239;-91
2021/09/11 07:37:25;;;;;;;7.97;5.17;;;18.50;99.50;;;;;;5013097;28;20228;-90
2021/09/11 07:39:51;;;;;;;13.13;5.07;;;18.50;99.50;;;;;;5005765;28;20174;-86
2021/09/11 07:42:17;;;;;;;6.50;5.20;;;18.50;99.40;;;;;;5016521;28;20178;-90
2021/09/11 07:44:44;;;;;;;9.20;5.57;;;18.70;98.90;;;;;;5003740;28;20324;-90
2021/09/11 07:47:10;;;;;;;8.57;5.10;;;18.60;99.30;;;;;;5009576;28;20275;-88
2021/09/11 07:49:36;;;;;;;6.97;4.80;;;18.70;99.40;;;;;;5009443;28;20197;-88
2021/09/11 07:52:04;;;;;;;6.60;4.87;;;18.60;99.10;;;;;;5007000;28;20191;-87
2021/09/11 07:54:31;;;;;;;6.97;4.50;;;18.70;99.20;;;;;;5004082;28;20174;-91
2021/09/11 07:56:57;;;;;;;6.97;4.73;;;18.70;99.60;;;;;;5012687;28;20178;-88
2021/09/11 07:59:22;;;;;;;8.40;4.50;;;18.80;99.00;;;;;;4996748;28;20249;-88
2021/09/11 08:01:48;;;;;;;7.53;5.20;;;18.70;98.70;;;;;;5002134;28;20275;-85
2021/09/11 08:04:14;;;;;;;9.43;5.60;;;18.80;98.60;;;;;;4991263;28;20265;-87
2021/09/11 08:06:39;;;;;;;7.80;4.90;;;18.80;98.80;;;;;;5004336;28;20261;-87
2021/09/11 08:09:05;;;;;;;7.70;4.70;;;19.10;97.90;;;;;;5002211;28;20190;-88
2021/09/11 08:11:31;;;;;;;7.97;4.93;;;19.00;97.60;;;;;;4993888;28;20183;-89
2021/09/11 08:13:56;;;;;;;10.40;4.90;;;19.00;96.80;;;;;;4979370;28;20640;-85
2021/09/11 08:16:22;;;;;;;6.90;5.13;;;19.10;96.90;;;;;;4989596;28;20214;-87
2021/09/11 08:18:48;;;;;;;8.90;5.73;;;19.30;96.50;;;;;;4999191;28;20174;-87
2021/09/11 08:21:15;;;;;;;8.43;5.50;;;19.20;96.40;;;;;;4999766;28;20182;-86
2021/09/11 08:23:42;;;;;;;7.97;5.17;;;19.30;95.90;;;;;;5016303;28;20218;-89
2021/09/11 08:26:08;;;;;;;6.97;5.23;;;19.30;96.10;;;;;;4999879;28;20207;-88
2021/09/11 08:28:33;;;;;;;6.70;5.40;;;19.40;95.10;;;;;;5016064;28;20178;-87
2021/09/11 08:30:59;;;;;;;8.87;5.87;;;19.60;94.40;;;;;;5000884;28;20537;-87
2021/09/11 08:33:25;;;;;;;7.73;5.17;;;19.60;94.30;;;;;;5016870;28;20186;-87
2021/09/11 08:35:51;;;;;;;7.67;5.20;;;19.60;94.00;;;;;;4987822;28;20599;-86
2021/09/11 08:38:16;;;;;;;7.97;5.17;;;19.70;93.60;;;;;;4995998;28;20207;-86
2021/09/11 08:40:43;;;;;;;6.90;5.40;;;19.80;93.00;;;;;;5010808;28;20199;-88
2021/09/11 08:43:09;;;;;;;8.23;4.77;;;19.80;92.50;;;;;;5007647;28;20206;-88
2021/09/11 08:45:36;;;;;;;6.80;4.57;;;19.90;91.20;;;;;;5001693;28;20239;-89
2021/09/11 08:48:02;;;;;;;9.23;4.97;;;20.10;90.00;;;;;;4998278;28;20197;-89
2021/09/11 08:50:30;;;;;;;8.53;5.00;;;19.90;91.00;;;;;;4990149;28;20195;-88
2021/09/11 08:52:56;;;;;;;10.63;5.07;;;19.90;90.00;;;;;;5014029;28;20325;-88
2021/09/11 08:55:22;;;;;;;6.50;4.27;;;19.80;91.30;;;;;;4998063;28;20183;-89
2021/09/11 08:58:01;;;;;;;8.77;5.20;;;19.80;91.60;;;;;;5005764;28;20182;-87
2021/09/11 09:00:52;;;;;;;8.73;5.33;;;19.80;92.30;;;;;;5009371;28;20178;-90
2021/09/11 09:03:42;;;;;;;8.57;4.87;;;19.80;92.60;;;;;;5002528;28;20207;-87
2021/09/11 09:06:27;;;;;;;8.07;4.83;;;19.70;93.00;;;;;;4989349;28;20206;-86
2021/09/11 09:09:04;;;;;;;6.67;4.67;;;19.60;93.50;;;;;;5011980;28;20209;-89
2021/09/11 09:11:32;;;;;;;6.93;5.20;;;19.60;93.80;;;;;;5011340;28;20949;-88
2021/09/11 09:14:16;;;;;;;6.23;4.80;;;19.70;93.30;;;;;;4997446;28;20214;-90
2021/09/11 09:16:50;;;;;;;6.10;5.00;;;19.70;94.40;;;;;;4995862;28;20206;-89
2021/09/11 09:19:18;;;;;;;7.90;4.93;;;19.70;93.60;;;;;;5014239;28;20186;-87
2021/09/11 09:21:46;;;;;;;7.13;4.77;;;19.80;93.30;;;;;;5002294;28;20198;-87
2021/09/11 09:24:14;;;;;;;7.97;4.70;;;19.90;92.90;;;;;;4988026;28;20230;-86
2021/09/11 09:26:58;;;;;;;6.67;4.80;;;19.90;93.00;;;;;;4998420;28;20172;-90
2021/09/11 09:29:24;;;;;;;7.70;5.17;;;20.00;92.50;;;;;;4996483;28;20618;-88
2021/09/11 09:31:56;;;;;;;6.83;4.80;;;20.00;91.70;;;;;;4980206;28;20182;-88
2021/09/11 09:34:34;;;;;;;9.93;4.97;;;19.90;92.30;;;;;;4982664;28;20225;-87
2021/09/11 09:37:02;;;;;;;9.83;5.00;;;19.90;93.60;;;;;;5012834;28;20174;-92
2021/09/11 09:39:37;;;;;;;7.00;5.57;;;20.00;92.90;;;;;;5016983;28;20185;-91
2021/09/11 09:42:04;;;;;;;8.57;5.47;;;20.10;91.90;;;;;;4992533;28;20174;-89
2021/09/11 09:44:43;;;;;;;8.00;5.03;;;20.00;92.20;;;;;;4977975;28;20258;-88
2021/09/11 09:47:23;;;;;;;9.23;5.83;;;20.10;91.50;;;;;;4992400;28;20188;-86
2021/09/11 09:50:08;;;;;;;8.03;5.97;;;20.10;91.10;;;;;;4985359;28;20195;-87
2021/09/11 09:52:35;;;;;;;8.23;5.83;;;20.10;91.10;;;;;;5012467;28;20194;-86
2021/09/11 09:55:01;;;;;;;8.30;5.60;;;20.30;85.20;;;;;;5012412;28;20206;-84
2021/09/11 09:57:32;;;;;;;6.63;5.63;;;20.30;88.30;;;;;;5010980;28;20175;-91
2021/09/11 09:59:58;;;;;;;7.73;5.87;;;20.30;83.10;;;;;;5016708;28;20178;-88
2021/09/11 10:02:24;;;;;;;6.70;6.07;;;20.40;82.80;;;;;;5013521;28;20174;-89
2021/09/11 10:04:54;;;;;;;11.87;6.43;;;20.50;83.30;;;;;;4998342;28;20190;-90
2021/09/11 10:07:22;;;;;;;9.53;7.13;;;20.60;80.60;;;;;;5017790;28;20299;-90
2021/09/11 10:09:50;;;;;;;7.50;6.50;;;20.40;78.40;;;;;;5007048;28;20173;-89
2021/09/11 10:12:29;;;;;;;7.40;6.60;;;20.30;81.80;;;;;;5021520;28;20251;-87
2021/09/11 10:15:28;;;;;;;10.37;7.33;;;20.30;81.60;;;;;;5015081;28;20177;-90
2021/09/11 10:17:55;;;;;;;7.30;6.27;;;20.30;85.20;;;;;;5011869;28;20635;-87
2021/09/11 10:20:22;;;;;;;8.93;6.97;;;20.30;85.20;;;;;;5002850;28;20195;-85
2021/09/11 10:23:12;;;;;;;7.57;6.67;;;20.40;81.70;;;;;;5014903;28;20277;-87
2021/09/11 10:25:45;;;;;;;7.87;6.80;;;20.50;81.80;;;;;;5001310;28;20207;-85
2021/09/11 10:28:21;;;;;;;7.37;6.50;;;20.50;77.70;;;;;;5017640;28;20186;-88
2021/09/11 10:31:10;;;;;;;8.53;6.87;;;20.40;76.40;;;;;;5018425;28;20167;-86
2021/09/11 10:33:52;;;;;;;7.97;7.10;;;20.40;79.70;;;;;;5001928;28;20187;-87
2021/09/11 10:36:23;;;;;;;8.93;7.30;;;20.40;78.60;;;;;;5019419;28;20733;-87
2021/09/11 10:38:52;;;;;;;11.47;8.53;;;20.40;78.90;;;;;;5026753;28;20651;-84
2021/09/11 10:41:19;;;;;;;9.43;8.27;;;20.30;79.60;;;;;;5022748;28;20202;-86
2021/09/11 10:44:05;;;;;;;9.13;8.23;;;20.40;81.70;;;;;;5000270;28;20217;-85
2021/09/11 10:46:54;;;;;;;11.07;8.23;;;20.40;81.40;;;;;;5001488;28;20800;-89
2021/09/11 10:49:34;;;;;;;10.30;8.93;;;20.30;86.90;;;;;;5004048;28;20181;-89
2021/09/11 10:52:04;;;;;;;10.40;8.60;;;20.50;84.60;;;;;;5028080;28;20173;-86
2021/09/11 10:54:43;;;;;;;8.83;8.00;;;20.70;79.50;;;;;;5028404;28;20173;-86
2021/09/11 10:57:17;;;;;;;11.40;7.63;;;20.90;75.80;;;;;;5009092;28;20235;-88
2021/09/11 10:59:44;;;;;;;9.87;8.83;;;20.90;71.80;;;;;;5027584;28;20167;-90
2021/09/11 11:02:36;;;;;;;14.10;9.37;;;20.90;70.30;;;;;;5007070;28;20174;-88
2021/09/11 11:05:03;;;;;;;11.47;9.00;;;20.80;70.30;;;;;;5002340;28;20206;-88
2021/09/11 11:07:31;;;;;;;10.87;8.50;;;20.80;74.60;;;;;;5019119;28;20197;-86
2021/09/11 11:09:59;;;;;;;9.60;7.53;;;20.80;74.70;;;;;;5001704;28;20172;-89
2021/09/11 11:12:32;;;;;;;8.50;7.30;;;20.80;73.10;;;;;;5004741;28;20173;-89
2021/09/11 11:15:06;;;;;;;9.37;8.07;;;20.70;77.90;;;;;;5022553;28;20179;-92
2021/09/11 11:17:36;;;;;;;9.53;7.47;;;20.60;78.10;;;;;;5019119;28;20583;-88
2021/09/11 11:20:04;;;;;;;9.23;7.53;;;20.70;76.70;;;;;;5019017;28;20176;-87
2021/09/11 11:22:42;;;;;;;9.27;7.70;;;20.80;75.30;;;;;;5011524;28;20687;-86
2021/09/11 11:25:27;;;;;;;8.90;6.87;;;20.90;71.00;;;;;;5013692;28;20224;-84
2021/09/11 11:27:53;;;;;;;9.07;6.37;;;20.90;71.00;;;;;;5001121;28;20214;-85
2021/09/11 11:30:21;;;;;;;7.77;6.47;;;21.00;68.30;;;;;;5007561;28;20169;-83
2021/09/11 11:32:47;;;;;;;8.30;7.10;;;21.00;70.30;;;;;;4995428;28;20180;-86
2021/09/11 11:35:14;;;;;;;10.73;7.03;;;21.00;67.00;;;;;;4997487;28;20168;-82
2021/09/11 11:37:41;;;;;;;9.50;7.23;;;20.90;66.40;;;;;;5015100;28;20593;-89
2021/09/11 11:40:12;;;;;;;9.73;6.73;;;20.90;69.30;;;;;;5016098;28;20167;-88
2021/09/11 11:42:39;;;;;;;9.00;6.97;;;21.00;67.80;;;;;;5005042;28;20252;-85
2021/09/11 11:45:07;;;;;;;9.50;6.43;;;21.10;66.40;;;;;;5002938;28;20648;-84
2021/09/11 11:47:42;;;;;;;9.87;6.67;;;21.20;64.90;;;;;;4987118;28;20177;-87
2021/09/11 11:50:14;;;;;;;8.80;6.53;;;21.30;57.00;;;;;;5004429;28;20188;-87
2021/09/11 11:52:41;;;;;;;10.50;8.13;;;21.30;57.70;;;;;;5005798;28;20703;-88
2021/09/11 11:55:09;;;;;;;12.40;9.33;;;21.20;57.10;;;;;;5005877;28;20642;-87
2021/09/11 11:57:35;;;;;;;12.30;9.50;;;21.10;59.80;;;;;;5008291;28;20586;-86
2021/09/11 12:00:08;;;;;;;10.10;9.10;;;21.00;60.80;;;;;;4981416;28;20180;-85
2021/09/11 12:02:41;;;;;;;10.57;9.00;;;21.10;58.10;;;;;;4995803;28;20272;-86
2021/09/11 12:05:30;;;;;;;8.10;6.97;;;21.00;56.10;;;;;;5022489;28;20467;-84
2021/09/11 12:08:02;;;;;;;6.90;6.20;;;20.60;78.50;;;;;;5009376;28;20201;-85
2021/09/11 12:10:30;;;;;;;5.77;4.97;;;20.00;94.80;;;;;;5027631;28;20187;-85
2021/09/11 12:13:07;;;;;;;8.63;6.10;;;19.50;99.10;;;;;;5037061;28;20193;-86
2021/09/11 12:15:38;;;;;;;6.63;4.83;;;19.40;99.90;;;;;;5035843;28;20178;-87
2021/09/11 12:18:11;;;;;;;6.97;5.53;;;19.30;99.90;;;;;;5033061;28;20184;-85
2021/09/11 12:20:50;;;;;;;8.43;6.70;;;19.50;99.90;;;;;;5046688;28;20256;-85
2021/09/11 12:23:28;;;;;;;7.53;6.57;;;19.60;99.90;;;;;;5027365;28;20197;-84
2021/09/11 12:26:09;;;;;;;11.40;7.83;;;19.70;99.90;;;;;;5041079;28;20181;-87
2021/09/11 12:28:45;;;;;;;10.03;7.37;;;19.90;99.90;;;;;;5027042;28;20701;-85
2021/09/11 12:31:19;;;;;;;9.20;7.50;;;20.10;99.90;;;;;;5027058;28;20172;-86
2021/09/11 12:33:53;;;;;;;8.63;7.10;;;20.30;99.90;;;;;;5049579;28;20199;-85
2021/09/11 12:36:42;;;;;;;9.30;6.57;;;20.30;99.90;;;;;;5050896;28;20178;-85
2021/09/11 12:39:24;;;;;;;10.00;6.13;;;20.40;99.90;;;;;;5034290;28;20186;-85
2021/09/11 12:41:51;;;;;;;8.23;6.63;;;20.60;97.50;;;;;;5048159;28;20179;-84
2021/09/11 12:44:21;;;;;;;10.00;5.83;;;20.70;97.70;;;;;;5030422;28;20292;-84
2021/09/11 12:46:51;;;;;;;8.50;6.00;;;20.80;94.70;;;;;;5028209;28;20182;-84
2021/09/11 12:49:17;;;;;;;9.73;6.27;;;20.70;96.00;;;;;;5029457;28;20239;-85
2021/09/11 12:51:46;;;;;;;9.37;5.67;;;20.70;95.40;;;;;;5036350;28;20181;-84
2021/09/11 12:54:16;;;;;;;7.10;6.00;;;20.70;95.30;;;;;;5032981;28;20195;-84